Decoded Metar for ULAA (ARHANGELSK in RUSSIA) (IATA:N/A) | Meteo·Mobile Aviation Weather
aviador You're here:

ULAA Decoded Metar

ARHANGELSK in RUSSIA
Report Time2018-08-14 10:30:00
UTC Time2018-08-14 10:57:28
Flight Rules vfr VFR
Wind340° at 8 kt
W.Decomp.*RWY 26: 3.4 kt HW 7.3 kt RCW
W.Rank340° ranks 22
Current wind is above 340° avg. (6.2)
Visibility9999 m
Phenomena:N/A
Clouds:Broken 040 Hf
Expected CloudBase > 3,200 ft AGL from Temp-Dew spread
Ceiling4,000 ft
Temp14°C (ISA -1)
Dew Point06°C (59% RH)
AAT10.2°C
QNH1006 hPa
Density Alt325 ft
Elevation62 ft
Report Wrong Elevation
Raw Report
ULAA 141030Z 34004MPS 280V040 9999 BKN040 14/06 Q1006 R08/CLRD70
NOSIG RMK QFE753/1004=

Extra information for ULAA:More info

Metar Taf Metar & Taf Last 4 Metars F.Rules Stats Wind Profile Meteogram Temp Stats Airport Information Weather charts Add Link Nearby VenuesMetar ALERT Operation Metar Decoded Social comments